createdAt,value
2018-02-10T00:00:15.802Z,70.00
2018-02-10T00:02:44.270Z,70.00
2018-02-10T00:05:12.855Z,69.60
2018-02-10T00:07:41.339Z,69.50
2018-02-10T00:10:10.718Z,69.80
2018-02-10T00:12:39.337Z,69.70
2018-02-10T00:15:07.894Z,69.50
2018-02-10T00:17:36.480Z,69.20
2018-02-10T00:20:04.977Z,68.90
2018-02-10T00:22:37.613Z,69.10
2018-02-10T00:25:19.369Z,69.10
2018-02-10T00:27:47.930Z,69.10
2018-02-10T00:30:16.495Z,69.20
2018-02-10T00:32:44.979Z,68.90
2018-02-10T00:35:13.152Z,68.10
2018-02-10T00:37:41.627Z,67.60
2018-02-10T00:40:13.708Z,66.70
2018-02-10T00:42:43.193Z,66.20
2018-02-10T00:45:11.891Z,66.20
2018-02-10T00:47:40.472Z,65.70
2018-02-10T00:50:08.952Z,65.90
2018-02-10T00:52:37.531Z,65.90
2018-02-10T00:55:06.065Z,66.20
2018-02-10T00:57:37.209Z,65.80
2018-02-10T01:00:05.813Z,64.70
2018-02-10T01:02:34.432Z,63.80
2018-02-10T01:05:02.913Z,63.10
2018-02-10T01:07:40.355Z,62.70
2018-02-10T01:10:21.842Z,61.70
2018-02-10T01:12:51.031Z,60.10
2018-02-10T01:15:19.761Z,60.10
2018-02-10T01:17:55.799Z,59.70
2018-02-10T01:20:25.355Z,59.70
2018-02-10T01:22:55.762Z,59.30
2018-02-10T01:25:25.165Z,59.30
2018-02-10T01:27:55.261Z,59.30
2018-02-10T01:30:27.817Z,58.40
2018-02-10T01:32:57.158Z,57.80
2018-02-10T01:35:26.662Z,57.80
2018-02-10T01:37:55.140Z,57.70
2018-02-10T01:40:23.551Z,56.60
2018-02-10T01:42:52.003Z,56.90
2018-02-10T01:45:20.479Z,58.20
2018-02-10T01:47:55.636Z,57.90
2018-02-10T01:50:25.739Z,56.90
2018-02-10T01:52:56.066Z,56.80
2018-02-10T01:55:24.541Z,56.70
2018-02-10T01:57:52.853Z,56.60
2018-02-10T02:00:21.294Z,56.80
2018-02-10T02:02:49.780Z,57.30
2018-02-10T02:05:20.918Z,57.70
2018-02-10T02:07:49.464Z,58.20
2018-02-10T02:10:18.804Z,58.00
2018-02-10T02:12:47.302Z,58.00
2018-02-10T02:15:22.358Z,58.30
2018-02-10T02:17:50.757Z,58.70
2018-02-10T02:20:20.260Z,59.50
2018-02-10T02:22:49.509Z,59.80
2018-02-10T02:25:17.921Z,59.70
2018-02-10T02:27:46.263Z,60.10
2018-02-10T02:30:14.840Z,60.30
2018-02-10T02:32:43.219Z,61.00
2018-02-10T02:35:20.176Z,61.50
2018-02-10T02:37:49.503Z,60.90
2018-02-10T02:40:22.032Z,60.90
2018-02-10T02:42:51.387Z,60.90
2018-02-10T02:45:20.284Z,60.90
2018-02-10T02:47:49.254Z,60.00
2018-02-10T02:50:17.848Z,59.50
2018-02-10T02:52:46.964Z,59.60
2018-02-10T02:55:17.612Z,58.50
2018-02-10T02:57:48.976Z,58.30
2018-02-10T03:00:19.181Z,58.30
2018-02-10T03:02:49.099Z,57.90
2018-02-10T03:05:29.212Z,56.20
2018-02-10T03:07:58.688Z,55.90
2018-02-10T03:10:28.952Z,53.60
2018-02-10T03:12:59.372Z,53.60
2018-02-10T03:15:29.285Z,51.20
2018-02-10T03:17:57.910Z,51.20
2018-02-10T03:20:26.819Z,49.80
2018-02-10T03:22:56.907Z,49.10
2018-02-10T03:25:26.167Z,48.40
2018-02-10T03:27:55.263Z,47.50
2018-02-10T03:30:31.552Z,47.50
2018-02-10T03:33:00.012Z,47.80
2018-02-10T03:35:28.588Z,48.20
2018-02-10T03:37:57.914Z,48.20
2018-02-10T03:40:27.294Z,48.80
2018-02-10T03:42:55.978Z,49.10
2018-02-10T03:45:25.994Z,49.60
2018-02-10T03:47:54.585Z,49.70
2018-02-10T03:50:23.058Z,49.80
2018-02-10T03:52:51.536Z,49.00
2018-02-10T03:55:27.799Z,50.30
2018-02-10T03:57:56.199Z,47.80
2018-02-10T04:00:25.304Z,46.10
2018-02-10T04:03:09.427Z,45.80
2018-02-10T04:05:37.901Z,46.20
2018-02-10T04:08:06.386Z,47.00
2018-02-10T04:10:34.882Z,47.30
2018-02-10T04:13:03.344Z,46.90
2018-02-10T04:15:33.669Z,47.00
2018-02-10T04:18:02.259Z,47.20
2018-02-10T04:20:30.835Z,46.40
2018-02-10T04:22:59.317Z,46.90
2018-02-10T04:25:28.526Z,46.30
2018-02-10T04:28:09.910Z,46.10
2018-02-10T04:30:38.429Z,44.90
2018-02-10T05:16:51.542Z,41.40
2018-02-10T05:19:20.318Z,35.80
2018-02-10T05:21:52.469Z,36.30
2018-02-10T05:24:20.846Z,36.30
2018-02-10T05:26:49.299Z,36.80
2018-02-10T05:29:17.786Z,36.40
2018-02-10T05:31:46.159Z,36.70
2018-02-10T05:34:14.645Z,37.70
2018-02-10T05:36:42.952Z,37.20
2018-02-10T05:39:12.481Z,37.60
2018-02-10T05:41:41.013Z,37.10
2018-02-10T05:44:09.398Z,36.90
2018-02-10T05:46:37.980Z,36.40
2018-02-10T05:49:06.451Z,37.10
2018-02-10T05:51:35.358Z,36.60
2018-02-10T05:54:03.846Z,37.00
2018-02-10T05:56:32.232Z,36.90
2018-02-10T05:59:00.682Z,36.80
2018-02-10T06:01:30.376Z,36.80
2018-02-10T06:03:59.890Z,36.80
2018-02-10T06:06:28.473Z,36.90
2018-02-10T06:08:56.917Z,37.30
2018-02-10T06:11:26.154Z,38.20
2018-02-10T06:14:02.078Z,38.10
2018-02-10T06:16:31.314Z,38.60
2018-02-10T06:19:06.073Z,38.60
2018-02-10T06:21:34.513Z,38.10
2018-02-10T06:24:02.994Z,38.00
2018-02-10T06:26:37.519Z,38.10
2018-02-10T06:29:06.208Z,38.70
2018-02-10T06:31:34.794Z,37.80
2018-02-10T06:34:03.382Z,37.10
2018-02-10T06:36:31.982Z,37.10
2018-02-10T06:39:00.646Z,36.00
2018-02-10T06:41:29.303Z,35.10
2018-02-10T06:43:57.816Z,35.10
2018-02-10T06:46:26.499Z,34.50
2018-02-10T06:48:54.981Z,34.60
2018-02-10T06:51:23.772Z,35.20
2018-02-10T06:53:53.132Z,34.10
2018-02-10T06:56:23.128Z,33.70
2018-02-10T06:58:53.045Z,32.60
2018-02-10T07:01:23.579Z,34.30
2018-02-10T07:03:53.136Z,34.30
2018-02-10T07:06:21.620Z,32.70
2018-02-10T07:08:54.867Z,32.80
2018-02-10T07:11:24.210Z,32.10
2018-02-10T07:13:52.587Z,32.10
2018-02-10T07:16:22.094Z,31.60
2018-02-10T07:18:50.675Z,31.60
2018-02-10T07:21:21.389Z,32.10
2018-02-10T07:23:49.879Z,31.40
2018-02-10T07:26:18.367Z,31.40
2018-02-10T07:28:46.947Z,31.80
2018-02-10T07:31:15.356Z,32.30
2018-02-10T07:33:57.681Z,31.70
2018-02-10T07:36:26.939Z,31.70
2018-02-10T07:39:07.336Z,31.70
2018-02-10T07:41:35.983Z,32.30
2018-02-10T07:44:04.559Z,32.50
2018-02-10T07:46:42.864Z,32.20
2018-02-10T07:49:25.835Z,32.00
2018-02-10T07:51:54.429Z,31.60
2018-02-10T07:54:24.088Z,31.00
2018-02-10T07:56:53.787Z,31.00
2018-02-10T07:59:30.841Z,30.80
2018-02-10T08:01:59.870Z,30.40
2018-02-10T08:04:31.354Z,30.00
2018-02-10T08:07:00.623Z,30.50
2018-02-10T08:09:30.023Z,30.40
2018-02-10T08:11:58.387Z,30.90
2018-02-10T08:14:26.986Z,31.00
2018-02-10T08:16:55.564Z,29.60
2018-02-10T08:19:24.059Z,29.30
2018-02-10T08:21:52.753Z,30.10
2018-02-10T08:24:21.272Z,29.80
2018-02-10T08:26:50.612Z,30.10
2018-02-10T08:29:19.400Z,30.10
2018-02-10T08:31:47.982Z,29.80
2018-02-10T08:34:16.522Z,29.90
2018-02-10T08:36:46.236Z,31.20
2018-02-10T08:39:15.687Z,31.20
2018-02-10T08:41:44.786Z,30.00
2018-02-10T08:44:13.254Z,29.00
2018-02-10T08:46:41.741Z,28.80
2018-02-10T08:49:12.065Z,28.20
2018-02-10T08:51:41.357Z,28.30
2018-02-10T08:54:13.827Z,28.30
2018-02-10T08:56:43.812Z,29.10
2018-02-10T08:59:23.735Z,29.40
2018-02-10T09:01:53.000Z,29.30
2018-02-10T09:04:21.693Z,29.50
2018-02-10T09:06:50.273Z,28.30
2018-02-10T09:09:21.440Z,29.30
2018-02-10T09:11:50.912Z,28.80
2018-02-10T09:14:20.859Z,28.00
2018-02-10T09:16:52.686Z,27.70
2018-02-10T09:19:21.070Z,27.60
2018-02-10T09:21:49.552Z,28.40
2018-02-10T09:24:18.024Z,28.50
2018-02-10T09:26:47.637Z,28.30
2018-02-10T09:29:16.122Z,28.00
2018-02-10T09:31:44.614Z,28.00
2018-02-10T09:34:13.181Z,27.00
2018-02-10T09:36:41.759Z,26.60
2018-02-10T09:39:10.345Z,26.60
2018-02-10T09:41:38.844Z,25.70
2018-02-10T09:44:07.259Z,24.00
2018-02-10T09:46:37.170Z,25.10
2018-02-10T09:49:06.623Z,25.10
2018-02-10T09:51:35.048Z,23.80
2018-02-10T09:54:03.539Z,23.70
2018-02-10T09:56:32.992Z,22.40
2018-02-10T09:59:05.492Z,22.10
2018-02-10T10:01:35.475Z,23.40
2018-02-10T10:04:04.059Z,23.40
2018-02-10T10:06:32.545Z,22.60
2018-02-10T10:09:01.123Z,22.10
2018-02-10T10:11:29.507Z,22.30
2018-02-10T10:14:01.861Z,23.10
2018-02-10T10:16:31.078Z,22.40
2018-02-10T10:18:59.520Z,22.80
2018-02-10T10:21:28.725Z,21.50
2018-02-10T10:23:57.489Z,21.50
2018-02-10T10:26:30.449Z,21.10
2018-02-10T10:29:00.130Z,21.60
2018-02-10T10:31:37.096Z,21.10
2018-02-10T10:34:10.557Z,21.30
2018-02-10T10:36:42.470Z,22.20
2018-02-10T10:39:10.951Z,20.60
2018-02-10T10:41:40.542Z,19.60
2018-02-10T10:44:19.420Z,18.70
2018-02-10T10:46:48.553Z,20.00
2018-02-10T10:49:18.316Z,19.20
2018-02-10T10:51:46.621Z,19.20
2018-02-10T10:54:15.181Z,18.70
2018-02-10T10:56:43.507Z,20.50
2018-02-10T10:59:12.723Z,20.00
2018-02-10T11:01:42.138Z,20.00
2018-02-10T11:04:10.717Z,19.60
2018-02-10T11:06:41.157Z,19.90
2018-02-10T11:09:11.101Z,19.80
2018-02-10T11:11:39.643Z,19.70
2018-02-10T11:14:08.221Z,19.50
2018-02-10T11:16:36.666Z,18.80
2018-02-10T11:19:06.218Z,19.80
2018-02-10T11:21:46.873Z,19.70
2018-02-10T11:24:15.403Z,18.90
2018-02-10T11:26:44.593Z,18.90
2018-02-10T11:29:13.848Z,18.20
2018-02-10T11:31:43.720Z,18.20
2018-02-10T11:34:21.262Z,18.10
2018-02-10T11:36:49.635Z,19.20
2018-02-10T11:39:17.973Z,19.80
2018-02-10T11:41:47.136Z,17.30
2018-02-10T11:44:17.127Z,17.30
2018-02-10T11:46:45.510Z,18.20
2018-02-10T11:49:14.090Z,18.50
2018-02-10T11:51:42.681Z,17.40
2018-02-10T11:54:11.256Z,17.50
2018-02-10T11:56:44.340Z,18.50
2018-02-10T11:59:12.997Z,18.70
2018-02-10T12:01:42.274Z,16.50
2018-02-10T12:04:10.708Z,16.50
2018-02-10T12:06:39.505Z,16.50
2018-02-10T12:09:08.102Z,16.40
2018-02-10T12:11:38.309Z,16.60
2018-02-10T12:14:06.990Z,18.30
2018-02-10T12:16:35.582Z,19.60
2018-02-10T12:19:07.026Z,18.70
2018-02-10T12:21:35.551Z,18.40
2018-02-10T12:24:04.802Z,18.10
2018-02-10T12:26:33.591Z,17.60
2018-02-10T12:29:04.427Z,16.50
2018-02-10T12:31:33.924Z,16.60
2018-02-10T12:34:02.416Z,16.50
2018-02-10T12:36:42.290Z,16.40
2018-02-10T12:39:11.659Z,16.30
2018-02-10T12:41:41.166Z,16.30
2018-02-10T12:44:09.751Z,15.90
2018-02-10T12:46:45.818Z,15.30
2018-02-10T12:49:30.575Z,16.40
2018-02-10T12:51:59.157Z,15.80
2018-02-10T12:54:27.737Z,16.70
2018-02-10T12:57:04.109Z,19.70
2018-02-10T12:59:35.565Z,17.70
2018-02-10T13:02:18.070Z,16.40
2018-02-10T13:04:46.550Z,15.70
2018-02-10T13:07:16.220Z,15.80
2018-02-10T13:09:45.874Z,17.50
2018-02-10T13:12:15.212Z,18.70
2018-02-10T13:14:43.759Z,18.60
2018-02-10T13:17:13.244Z,15.70
2018-02-10T13:19:41.839Z,15.70
2018-02-10T13:22:10.272Z,17.10
2018-02-10T13:24:39.562Z,17.50
2018-02-10T13:27:09.427Z,17.50
2018-02-10T13:29:37.932Z,17.40
2018-02-10T13:32:06.342Z,17.70
2018-02-10T13:34:35.069Z,16.50
2018-02-10T13:37:05.017Z,19.70
2018-02-10T13:39:34.392Z,19.70
2018-02-10T13:42:03.334Z,18.80
2018-02-10T13:44:32.683Z,19.40
2018-02-10T13:47:01.910Z,19.40
2018-02-10T13:49:30.465Z,17.70
2018-02-10T13:52:07.199Z,16.30
2018-02-10T13:54:36.440Z,16.10
2018-02-10T13:57:11.880Z,16.10
2018-02-10T13:59:40.308Z,17.00
2018-02-10T14:02:08.838Z,19.40
2018-02-10T14:04:37.327Z,18.70
2018-02-10T14:07:05.914Z,18.20
2018-02-10T14:09:34.281Z,19.10
2018-02-10T14:12:02.790Z,20.40
2018-02-10T14:14:35.641Z,19.00
2018-02-10T14:17:05.032Z,17.50
2018-02-10T14:19:40.674Z,16.00
2018-02-10T14:22:09.822Z,16.20
2018-02-10T14:24:38.392Z,16.20
2018-02-10T14:27:06.892Z,16.10
2018-02-10T14:29:35.652Z,16.20
2018-02-10T14:32:06.026Z,16.50
2018-02-10T14:34:42.786Z,16.10
2018-02-10T14:37:13.276Z,17.80
2018-02-10T14:39:41.725Z,17.70
2018-02-10T14:42:10.134Z,17.40
2018-02-10T14:44:44.671Z,17.90
2018-02-10T14:47:13.141Z,17.30
2018-02-10T14:49:41.744Z,17.20
2018-02-10T14:52:10.311Z,17.10
2018-02-10T14:54:40.903Z,16.70
2018-02-10T14:57:10.259Z,17.50
2018-02-10T14:59:39.081Z,17.50
2018-02-10T15:02:07.514Z,15.80
2018-02-10T15:04:35.985Z,17.20
2018-02-10T15:07:04.428Z,17.60
2018-02-10T15:09:33.669Z,18.40
2018-02-10T15:12:02.090Z,18.40
2018-02-10T15:14:31.138Z,18.10
2018-02-10T15:16:59.688Z,15.90
2018-02-10T15:19:28.304Z,16.10
2018-02-10T15:21:56.787Z,16.70
2018-02-10T15:24:25.373Z,17.00
2018-02-10T15:26:55.346Z,18.10
2018-02-10T15:29:24.586Z,18.10
2018-02-10T15:32:05.769Z,17.50
2018-02-10T15:34:46.715Z,18.00
2018-02-10T15:37:21.982Z,17.50
2018-02-10T15:39:50.603Z,17.50
2018-02-10T15:42:20.172Z,18.40
2018-02-10T15:44:48.686Z,18.40
2018-02-10T15:47:27.365Z,18.40
2018-02-10T15:49:55.788Z,17.40
2018-02-10T15:52:24.225Z,17.10
2018-02-10T15:54:53.162Z,18.30
2018-02-10T15:57:22.588Z,18.70
2018-02-10T15:59:53.776Z,17.10
2018-02-10T16:02:23.532Z,18.70
2018-02-10T16:04:52.874Z,16.10
2018-02-10T16:07:21.306Z,16.00
2018-02-10T16:09:49.801Z,17.80
2018-02-10T16:12:20.202Z,20.00
2018-02-10T16:14:53.421Z,20.00
2018-02-10T16:17:23.270Z,20.40
2018-02-10T16:19:51.851Z,22.20
2018-02-10T16:22:21.772Z,21.30
2018-02-10T16:24:50.466Z,21.90
2018-02-10T16:27:19.967Z,23.30
2018-02-10T16:29:48.750Z,23.30
2018-02-10T16:32:17.278Z,23.90
2018-02-10T16:34:45.815Z,25.60
2018-02-10T16:37:14.975Z,28.10
2018-02-10T16:39:47.188Z,26.60
2018-02-10T16:42:18.023Z,27.20
2018-02-10T16:44:47.289Z,27.20
2018-02-10T16:47:16.113Z,26.70
2018-02-10T16:52:26.885Z,28.60
2018-02-10T16:54:58.602Z,29.60
2018-02-10T16:57:27.744Z,31.10
2018-02-10T16:59:56.226Z,31.60
2018-02-10T17:02:25.455Z,34.50
2018-02-10T17:04:54.274Z,34.50
2018-02-10T17:07:33.833Z,37.60
2018-02-10T17:10:02.370Z,37.50
2018-02-10T17:12:32.757Z,38.30
2018-02-10T17:15:01.244Z,38.30
2018-02-10T17:17:38.059Z,40.60
2018-02-10T17:20:08.567Z,40.00
2018-02-10T17:22:36.949Z,40.00
2018-02-10T17:25:05.497Z,41.10
2018-02-10T17:27:34.548Z,41.30
2018-02-10T17:30:17.174Z,41.20
2018-02-10T17:32:45.821Z,40.60
2018-02-10T17:35:14.481Z,40.60
2018-02-10T17:37:43.313Z,39.30
2018-02-10T17:40:16.560Z,38.00
2018-02-10T17:42:45.245Z,37.90
2018-02-10T17:45:14.756Z,38.30
2018-02-10T17:47:43.381Z,39.10
2018-02-10T17:50:15.510Z,38.80
2018-02-10T17:52:44.496Z,37.80
2018-02-10T17:55:13.971Z,37.10
2018-02-10T17:57:42.925Z,37.20
2018-02-10T18:00:11.472Z,35.70
2018-02-10T18:02:39.954Z,35.00
2018-02-10T18:05:13.959Z,34.10
2018-02-10T18:07:49.305Z,33.50
2018-02-10T18:10:19.077Z,33.40
2018-02-10T18:12:47.598Z,33.70
2018-02-10T18:15:16.078Z,34.30
2018-02-10T18:17:44.489Z,32.90
2018-02-10T18:20:15.191Z,33.30
2018-02-10T18:22:52.262Z,33.20
2018-02-10T18:25:20.966Z,32.30
2018-02-10T18:27:50.729Z,32.80
2018-02-10T18:30:21.705Z,35.30
2018-02-10T18:32:50.502Z,35.20
2018-02-10T18:35:19.320Z,36.20
2018-02-10T18:37:47.866Z,35.50
2018-02-10T18:40:16.417Z,35.10
2018-02-10T18:42:45.669Z,33.30
2018-02-10T18:45:15.742Z,32.30
2018-02-10T18:47:44.352Z,32.30
2018-02-10T18:50:13.855Z,32.10
2018-02-10T18:52:42.435Z,31.70
2018-02-10T18:55:11.289Z,30.90
2018-02-10T18:57:40.636Z,30.80
2018-02-10T19:00:09.826Z,30.70
2018-02-10T19:02:40.976Z,30.60
2018-02-10T19:05:10.369Z,30.00
2018-02-10T19:07:43.447Z,29.70
2018-02-10T19:10:11.940Z,28.90
2018-02-10T19:12:41.898Z,29.00
2018-02-10T19:15:12.808Z,27.60
2018-02-10T19:17:44.463Z,26.10
2018-02-10T19:20:13.086Z,26.00
2018-02-10T19:22:42.345Z,25.30
2018-02-10T19:25:10.912Z,25.30
2018-02-10T19:27:39.415Z,25.60
2018-02-10T19:30:08.042Z,24.70
2018-02-10T19:32:37.387Z,24.50
2018-02-10T19:35:06.728Z,24.50
2018-02-10T19:37:36.141Z,24.40
2018-02-10T19:40:05.492Z,24.50
2018-02-10T19:42:34.153Z,24.50
2018-02-10T19:45:02.859Z,24.80
2018-02-10T19:47:34.955Z,25.90
2018-02-10T19:50:03.708Z,25.80
2018-02-10T19:52:32.093Z,25.90
2018-02-10T19:55:01.198Z,25.90
2018-02-10T19:57:31.682Z,26.00
2018-02-10T20:00:00.729Z,26.10
2018-02-10T20:02:29.801Z,25.50
2018-02-10T20:04:59.046Z,25.50
2018-02-10T20:07:29.671Z,25.90
2018-02-10T20:09:58.217Z,25.30
2018-02-10T20:12:26.896Z,25.00
2018-02-10T20:14:56.474Z,25.30
2018-02-10T20:17:26.624Z,25.10
2018-02-10T20:19:55.415Z,25.10
2018-02-10T20:22:24.005Z,25.40
2018-02-10T20:24:52.598Z,25.20
2018-02-10T20:27:20.983Z,25.10
2018-02-10T20:29:51.591Z,25.10
2018-02-10T20:32:27.696Z,25.10
2018-02-10T20:34:58.039Z,25.00
2018-02-10T20:37:27.486Z,24.80
2018-02-10T20:39:56.122Z,24.80
2018-02-10T20:42:26.281Z,24.60
2018-02-10T20:44:54.864Z,24.50
2018-02-10T20:47:23.401Z,24.20
2018-02-10T20:49:53.683Z,24.10
2018-02-10T20:52:22.255Z,23.60
2018-02-10T20:54:50.831Z,23.40
2018-02-10T20:57:19.178Z,23.40
2018-02-10T20:59:48.303Z,23.20
2018-02-10T21:02:16.791Z,23.20
2018-02-10T21:04:45.225Z,23.30
2018-02-10T21:07:14.467Z,23.40
2018-02-10T21:09:42.956Z,23.30
2018-02-10T21:12:11.418Z,23.20
2018-02-10T21:14:40.073Z,23.50
2018-02-10T21:17:09.633Z,23.80
2018-02-10T21:19:39.749Z,23.70
2018-02-10T21:22:18.710Z,23.40
2018-02-10T21:24:48.646Z,23.00
2018-02-10T21:27:21.566Z,22.80
2018-02-10T21:29:51.502Z,22.80
2018-02-10T21:32:21.428Z,23.00
2018-02-10T21:34:53.673Z,23.10
2018-02-10T21:37:23.170Z,23.10
2018-02-10T21:39:52.016Z,23.10
2018-02-10T21:42:21.080Z,23.10
2018-02-10T21:44:50.420Z,23.10
2018-02-10T21:47:19.822Z,22.80
2018-02-10T21:49:48.551Z,22.70
2018-02-10T21:52:18.027Z,22.80
2018-02-10T21:54:48.366Z,22.80
2018-02-10T21:57:17.268Z,22.70
2018-02-10T21:59:52.221Z,22.80
2018-02-10T22:02:23.074Z,22.80
2018-02-10T22:05:10.612Z,22.40
2018-02-10T22:07:46.887Z,22.30
2018-02-10T22:10:18.987Z,22.30
2018-02-10T22:12:49.260Z,22.70
2018-02-10T22:15:21.050Z,22.20
2018-02-10T22:17:50.588Z,21.90
2018-02-10T22:20:20.905Z,21.90
2018-02-10T22:22:50.298Z,22.00
2018-02-10T22:25:20.854Z,22.00
2018-02-10T22:27:49.708Z,22.10
2018-02-10T22:30:18.510Z,22.20
2018-02-10T22:32:47.048Z,22.40
2018-02-10T22:35:16.504Z,22.30
2018-02-10T22:37:44.970Z,22.30
2018-02-10T22:40:13.479Z,22.20
2018-02-10T22:42:42.043Z,21.50
2018-02-10T22:45:10.649Z,21.70
2018-02-10T22:47:44.443Z,21.70
2018-02-10T22:50:13.006Z,21.50
2018-02-10T22:52:41.538Z,21.90
2018-02-10T22:55:10.743Z,22.50
2018-02-10T22:57:47.338Z,23.10
2018-02-10T23:00:15.838Z,23.10
2018-02-10T23:02:59.884Z,23.20
2018-02-10T23:05:28.931Z,23.50
2018-02-10T23:07:58.625Z,23.80
2018-02-10T23:10:27.180Z,23.80
2018-02-10T23:12:59.134Z,24.30
2018-02-10T23:15:38.272Z,23.90
2018-02-10T23:18:07.833Z,24.30
2018-02-10T23:20:37.275Z,25.10
2018-02-10T23:23:06.371Z,25.10
2018-02-10T23:25:35.423Z,25.40
2018-02-10T23:28:11.831Z,25.80
2018-02-10T23:30:40.323Z,25.80
2018-02-10T23:33:08.719Z,26.00
2018-02-10T23:35:37.484Z,26.30
2018-02-10T23:38:06.785Z,28.20
2018-02-10T23:40:35.286Z,28.20
2018-02-10T23:43:04.905Z,28.60
2018-02-10T23:45:35.968Z,28.90
2018-02-10T23:48:06.344Z,28.10
2018-02-10T23:50:34.813Z,28.10
2018-02-10T23:53:04.057Z,29.00
2018-02-10T23:55:34.152Z,29.00
2018-02-10T23:58:02.749Z,28.00
